createdAt,value
2018-12-23T00:01:54.496Z,101249.23
2018-12-23T00:04:58.704Z,101244.31
2018-12-23T00:08:02.928Z,101242.91
2018-12-23T00:11:07.142Z,101249.47
2018-12-23T00:14:11.412Z,101250.34
2018-12-23T00:17:15.607Z,101245.29
2018-12-23T00:20:19.856Z,101246.83
2018-12-23T00:23:24.064Z,101243.59
2018-12-23T00:26:28.383Z,101232.80
2018-12-23T00:29:32.600Z,101238.73
2018-12-23T00:32:36.863Z,101227.67
2018-12-23T00:35:41.076Z,101234.42
2018-12-23T00:38:45.475Z,101236.28
2018-12-23T00:41:49.687Z,101228.65
2018-12-23T00:44:53.987Z,101232.86
2018-12-23T00:47:58.183Z,101238.38
2018-12-23T00:51:02.459Z,101235.38
2018-12-23T00:54:06.767Z,101237.06
2018-12-23T00:57:11.091Z,101235.71
2018-12-23T01:00:15.458Z,101239.27
2018-12-23T01:03:19.693Z,101239.42
2018-12-23T01:06:25.164Z,101238.41
2018-12-23T01:09:29.483Z,101232.01
2018-12-23T01:12:33.847Z,101233.02
2018-12-23T01:15:38.079Z,101242.16
2018-12-23T01:18:42.283Z,101233.55
2018-12-23T01:21:46.486Z,101232.48
2018-12-23T01:24:50.720Z,101236.00
2018-12-23T01:27:54.963Z,101232.41
2018-12-23T01:30:59.199Z,101233.39
2018-12-23T01:34:05.305Z,101234.80
2018-12-23T01:37:09.655Z,101240.70
2018-12-23T01:40:13.995Z,101234.14
2018-12-23T01:43:18.283Z,101231.13
2018-12-23T01:46:22.603Z,101230.28
2018-12-23T01:49:26.931Z,101229.44
2018-12-23T01:52:31.263Z,101236.34
2018-12-23T01:55:35.692Z,101242.91
2018-12-23T01:58:39.911Z,101231.06
2018-12-23T02:01:44.278Z,101226.55
2018-12-23T02:04:48.507Z,101227.08
2018-12-23T02:07:52.782Z,101235.05
2018-12-23T02:10:57.025Z,101236.38
2018-12-23T02:14:01.436Z,101232.66
2018-12-23T02:17:05.818Z,101231.77
2018-12-23T02:20:10.271Z,101230.61
2018-12-23T02:23:14.559Z,101227.87
2018-12-23T02:26:18.858Z,101232.62
2018-12-23T02:29:23.078Z,101233.70
2018-12-23T02:32:27.363Z,101232.05
2018-12-23T02:35:31.593Z,101233.77
2018-12-23T02:38:35.823Z,101226.24
2018-12-23T02:41:40.225Z,101216.63
2018-12-23T02:44:44.449Z,101215.61
2018-12-23T02:47:48.683Z,101216.49
2018-12-23T02:50:52.955Z,101213.80
2018-12-23T02:53:57.243Z,101211.59
2018-12-23T02:57:01.463Z,101219.78
2018-12-23T03:00:06.451Z,101220.44
2018-12-23T03:03:10.744Z,101224.42
2018-12-23T03:06:15.343Z,101222.57
2018-12-23T03:09:19.625Z,101229.52
2018-12-23T03:12:23.848Z,101224.93
2018-12-23T03:15:28.027Z,101227.44
2018-12-23T03:18:32.311Z,101237.70
2018-12-23T03:21:36.527Z,101227.87
2018-12-23T03:24:40.827Z,101233.50
2018-12-23T03:27:45.111Z,101227.25
2018-12-23T03:30:49.328Z,101225.48
2018-12-23T03:33:53.576Z,101222.12
2018-12-23T03:36:57.808Z,101220.27
2018-12-23T03:40:02.022Z,101218.64
2018-12-23T03:43:06.223Z,101216.09
2018-12-23T03:46:10.490Z,101210.03
2018-12-23T03:49:14.712Z,101207.92
2018-12-23T03:52:19.003Z,101210.05
2018-12-23T03:55:23.231Z,101202.80
2018-12-23T03:58:27.431Z,101200.55
2018-12-23T04:01:31.730Z,101200.98
2018-12-23T04:04:36.117Z,101207.39
2018-12-23T04:07:40.488Z,101209.24
2018-12-23T04:10:44.692Z,101213.37
2018-12-23T04:13:48.903Z,101217.47
2018-12-23T04:16:53.124Z,101219.98
2018-12-23T04:19:57.509Z,101223.06
2018-12-23T04:23:01.755Z,101228.81
2018-12-23T04:26:06.071Z,101228.16
2018-12-23T04:29:10.312Z,101228.28
2018-12-23T04:32:14.651Z,101228.09
2018-12-23T04:35:19.008Z,101226.62
2018-12-23T04:38:23.244Z,101222.95
2018-12-23T04:41:27.567Z,101225.11
2018-12-23T04:44:31.775Z,101219.09
2018-12-23T04:47:36.070Z,101217.27
2018-12-23T04:50:40.331Z,101220.48
2018-12-23T04:53:44.545Z,101210.78
2018-12-23T04:56:48.852Z,101203.03
2018-12-23T04:59:53.042Z,101208.97
2018-12-23T05:02:57.279Z,101208.00
2018-12-23T05:06:01.478Z,101209.66
2018-12-23T05:09:07.101Z,101206.65
2018-12-23T05:12:11.324Z,101211.47
2018-12-23T05:15:15.687Z,101203.55
2018-12-23T05:18:19.962Z,101203.94
2018-12-23T05:21:24.191Z,101204.83
2018-12-23T05:24:28.490Z,101206.95
2018-12-23T05:27:32.715Z,101204.44
2018-12-23T05:30:36.915Z,101201.16
2018-12-23T05:33:41.171Z,101198.30
2018-12-23T05:36:52.303Z,101205.45
2018-12-23T05:39:51.652Z,101211.12
2018-12-23T05:42:55.868Z,101219.20
2018-12-23T05:46:00.179Z,101223.64
2018-12-23T05:49:04.556Z,101225.00
2018-12-23T05:52:08.761Z,101224.61
2018-12-23T05:55:12.969Z,101216.84
2018-12-23T05:58:17.307Z,101217.93
2018-12-23T06:01:21.512Z,101221.98
2018-12-23T06:04:25.759Z,101217.66
2018-12-23T06:07:29.967Z,101226.46
2018-12-23T06:10:34.224Z,101226.46
2018-12-23T06:13:38.475Z,101228.58
2018-12-23T06:16:42.687Z,101230.43
2018-12-23T06:19:46.897Z,101230.12
2018-12-23T06:22:51.127Z,101230.63
2018-12-23T06:25:55.333Z,101238.34
2018-12-23T06:28:59.564Z,101243.16
2018-12-23T06:32:03.868Z,101242.66
2018-12-23T06:35:08.344Z,101233.08
2018-12-23T06:38:12.587Z,101238.80
2018-12-23T06:41:18.372Z,101243.31
2018-12-23T06:44:22.692Z,101245.17
2018-12-23T06:47:26.904Z,101241.77
2018-12-23T06:50:31.127Z,101244.22
2018-12-23T06:53:35.424Z,101240.23
2018-12-23T06:56:39.653Z,101236.87
2018-12-23T06:59:43.875Z,101249.42
2018-12-23T07:02:48.099Z,101251.50
2018-12-23T07:05:52.343Z,101246.10
2018-12-23T07:08:56.569Z,101248.27
2018-12-23T07:12:00.798Z,101247.48
2018-12-23T07:15:05.407Z,101241.97
2018-12-23T07:18:09.633Z,101242.16
2018-12-23T07:21:13.851Z,101239.07
2018-12-23T07:24:18.266Z,101246.02
2018-12-23T07:27:22.462Z,101245.36
2018-12-23T07:30:26.737Z,101247.78
2018-12-23T07:33:30.956Z,101241.22
2018-12-23T07:36:35.148Z,101244.11
2018-12-23T07:39:39.391Z,101260.05
2018-12-23T07:42:43.670Z,101256.34
2018-12-23T07:45:47.994Z,101257.24
2018-12-23T07:48:52.198Z,101267.87
2018-12-23T07:51:56.478Z,101281.94
2018-12-23T07:55:00.699Z,101268.88
2018-12-23T07:58:04.916Z,101268.06
2018-12-23T08:01:09.195Z,101265.62
2018-12-23T08:04:13.419Z,101268.39
2018-12-23T08:07:17.779Z,101267.33
2018-12-23T08:10:22.021Z,101266.86
2018-12-23T08:13:26.220Z,101258.95
2018-12-23T08:16:30.443Z,101255.20
2018-12-23T08:19:34.622Z,101255.94
2018-12-23T08:22:38.852Z,101265.80
2018-12-23T08:25:43.044Z,101268.38
2018-12-23T08:28:47.291Z,101261.99
2018-12-23T08:31:51.512Z,101259.20
2018-12-23T08:34:55.723Z,101250.56
2018-12-23T08:38:00.029Z,101254.39
2018-12-23T08:41:04.371Z,101254.45
2018-12-23T08:44:08.578Z,101262.59
2018-12-23T08:47:12.802Z,101268.84
2018-12-23T08:50:17.008Z,101258.78
2018-12-23T08:53:21.304Z,101255.05
2018-12-23T08:56:25.509Z,101257.88
2018-12-23T08:59:29.752Z,101264.79
2018-12-23T09:02:33.951Z,101259.20
2018-12-23T09:05:38.187Z,101256.53
2018-12-23T09:08:42.371Z,101259.39
2018-12-23T09:11:46.604Z,101265.07
2018-12-23T09:14:50.840Z,101260.27
2018-12-23T09:17:55.083Z,101264.32
2018-12-23T09:20:59.295Z,101265.23
2018-12-23T09:24:03.807Z,101263.38
2018-12-23T09:27:08.039Z,101257.91
2018-12-23T09:30:12.258Z,101256.38
2018-12-23T09:33:16.476Z,101260.83
2018-12-23T09:36:20.690Z,101260.41
2018-12-23T09:39:24.947Z,101258.02
2018-12-23T09:42:29.269Z,101256.64
2018-12-23T09:45:33.575Z,101258.42
2018-12-23T09:48:37.819Z,101259.08
2018-12-23T09:51:42.031Z,101266.95
2018-12-23T09:54:46.319Z,101272.29
2018-12-23T09:57:50.495Z,101266.31
2018-12-23T10:00:54.844Z,101273.84
2018-12-23T10:04:00.627Z,101271.98
2018-12-23T10:07:04.983Z,101266.70
2018-12-23T10:10:09.375Z,101265.55
2018-12-23T10:13:13.563Z,101261.95
2018-12-23T10:16:17.774Z,101270.14
2018-12-23T10:19:21.943Z,101260.53
2018-12-23T10:22:26.184Z,101252.56
2018-12-23T10:25:30.400Z,101255.97
2018-12-23T10:28:34.632Z,101258.17
2018-12-23T10:31:38.877Z,101256.66
2018-12-23T10:34:43.107Z,101257.52
2018-12-23T10:37:47.354Z,101251.80
2018-12-23T10:40:51.528Z,101245.92
2018-12-23T10:43:55.763Z,101240.02
2018-12-23T10:47:00.147Z,101237.31
2018-12-23T10:50:04.676Z,101231.52
2018-12-23T10:53:08.911Z,101223.26
2018-12-23T10:56:13.104Z,101224.03
2018-12-23T10:59:17.329Z,101224.61
2018-12-23T11:02:21.525Z,101225.19
2018-12-23T11:05:25.728Z,101227.08
2018-12-23T11:08:29.954Z,101229.63
2018-12-23T11:11:34.148Z,101230.67
2018-12-23T11:14:38.347Z,101222.25
2018-12-23T11:17:42.564Z,101226.93
2018-12-23T11:20:46.771Z,101219.09
2018-12-23T11:23:51.075Z,101213.30
2018-12-23T11:26:55.266Z,101214.65
2018-12-23T11:29:59.472Z,101204.99
2018-12-23T11:33:03.755Z,101203.59
2018-12-23T11:36:08.066Z,101196.23
2018-12-23T11:39:12.271Z,101197.66
2018-12-23T11:42:16.503Z,101194.95
2018-12-23T11:45:20.711Z,101197.16
2018-12-23T11:48:24.951Z,101198.89
2018-12-23T11:51:29.155Z,101199.01
2018-12-23T11:54:33.454Z,101193.33
2018-12-23T11:57:37.699Z,101197.16
2018-12-23T12:00:41.924Z,101198.50
2018-12-23T12:03:46.143Z,101199.97
2018-12-23T12:06:50.429Z,101202.17
2018-12-23T12:09:54.675Z,101199.78
2018-12-23T12:12:58.892Z,101200.28
2018-12-23T12:16:03.190Z,101202.22
2018-12-23T12:19:07.488Z,101203.14
2018-12-23T12:22:11.775Z,101197.73
2018-12-23T12:25:15.979Z,101199.63
2018-12-23T12:28:20.172Z,101204.34
2018-12-23T12:31:24.400Z,101202.98
2018-12-23T12:34:28.695Z,101196.89
2018-12-23T12:37:33.015Z,101192.45
2018-12-23T12:40:37.292Z,101191.41
2018-12-23T12:43:41.583Z,101205.96
2018-12-23T12:46:45.877Z,101203.18
2018-12-23T12:49:50.199Z,101201.91
2018-12-23T12:52:54.479Z,101194.88
2018-12-23T12:55:58.715Z,101198.43
2018-12-23T12:59:02.916Z,101199.20
2018-12-23T13:02:07.186Z,101198.05
2018-12-23T13:05:11.478Z,101196.23
2018-12-23T13:08:15.728Z,101186.31
2018-12-23T13:11:20.003Z,101186.39
2018-12-23T13:14:24.250Z,101184.58
2018-12-23T13:17:28.467Z,101185.47
2018-12-23T13:20:32.712Z,101180.91
2018-12-23T13:23:36.967Z,101183.41
2018-12-23T13:26:41.192Z,101178.59
2018-12-23T13:29:45.871Z,101188.74
2018-12-23T13:32:50.086Z,101180.59
2018-12-23T13:35:54.417Z,101192.30
2018-12-23T13:38:58.710Z,101182.52
2018-12-23T13:42:25.155Z,101185.42
2018-12-23T13:45:50.696Z,101173.95
2018-12-23T13:50:25.210Z,101172.80
2018-12-23T13:59:51.472Z,101176.58
2018-12-23T14:03:25.250Z,101176.57
2018-12-23T14:07:39.584Z,101183.70
2018-12-23T14:11:15.980Z,101179.19
2018-12-23T14:14:21.650Z,101182.04
2018-12-23T14:17:27.296Z,101182.55
2018-12-23T14:20:32.953Z,101184.20
2018-12-23T14:23:38.615Z,101176.30
2018-12-23T14:26:44.356Z,101176.64
2018-12-23T14:29:50.008Z,101169.89
2018-12-23T14:32:55.656Z,101163.17
2018-12-23T14:36:01.311Z,101160.01
2018-12-23T14:39:10.239Z,101159.00
2018-12-23T14:42:15.890Z,101152.17
2018-12-23T14:45:21.539Z,101148.81
2018-12-23T14:48:27.235Z,101154.28
2018-12-23T14:51:33.469Z,101150.80
2018-12-23T14:54:39.144Z,101145.13
2018-12-23T14:57:44.922Z,101156.23
2018-12-23T15:00:50.575Z,101151.91
2018-12-23T15:03:56.265Z,101144.38
2018-12-23T15:07:02.037Z,101146.48
2018-12-23T15:10:09.016Z,101141.97
2018-12-23T15:13:14.730Z,101144.16
2018-12-23T15:16:20.385Z,101149.63
2018-12-23T15:19:26.073Z,101143.62
2018-12-23T15:22:31.794Z,101138.61
2018-12-23T15:25:37.603Z,101138.92
2018-12-23T15:28:43.284Z,101137.07
2018-12-23T15:31:49.021Z,101130.70
2018-12-23T15:34:54.711Z,101129.66
2018-12-23T15:38:00.437Z,101127.66
2018-12-23T15:41:06.221Z,101127.16
2018-12-23T15:44:11.949Z,101134.78
2018-12-23T15:47:17.624Z,101129.38
2018-12-23T15:50:23.307Z,101131.23
2018-12-23T15:53:29.015Z,101131.11
2018-12-23T15:56:34.751Z,101134.18
2018-12-23T15:59:40.502Z,101132.89
2018-12-23T16:02:46.197Z,101135.61
2018-12-23T16:05:51.886Z,101131.38
2018-12-23T16:08:57.561Z,101131.09
2018-12-23T16:12:03.227Z,101123.38
2018-12-23T16:15:09.055Z,101129.67
2018-12-23T16:18:14.695Z,101124.78
2018-12-23T16:21:20.365Z,101127.80
2018-12-23T16:24:26.042Z,101129.80
2018-12-23T16:27:31.692Z,101128.95
2018-12-23T16:30:37.621Z,101136.05
2018-12-23T16:33:43.362Z,101141.75
2018-12-23T16:36:49.012Z,101137.39
2018-12-23T16:39:59.584Z,101140.59
2018-12-23T16:43:02.061Z,101134.70
2018-12-23T16:46:07.719Z,101133.85
2018-12-23T16:49:13.374Z,101134.70
2018-12-23T16:52:18.999Z,101140.59
2018-12-23T16:55:24.766Z,101148.50
2018-12-23T16:58:30.486Z,101149.53
2018-12-23T17:01:36.124Z,101150.22
2018-12-23T17:04:41.773Z,101154.58
2018-12-23T17:07:47.426Z,101158.31
2018-12-23T17:10:53.081Z,101155.30
2018-12-23T17:13:58.718Z,101160.34
2018-12-23T17:17:04.394Z,101150.24
2018-12-23T17:20:13.848Z,101153.97
2018-12-23T17:23:19.520Z,101157.04
2018-12-23T17:26:25.192Z,101161.42
2018-12-23T17:29:30.856Z,101162.45
2018-12-23T17:32:36.488Z,101171.74
2018-12-23T17:35:42.140Z,101170.70
2018-12-23T17:38:47.838Z,101175.25
2018-12-23T17:41:53.489Z,101172.05
2018-12-23T17:44:59.280Z,101172.19
2018-12-23T17:48:05.023Z,101167.14
2018-12-23T17:51:10.795Z,101167.95
2018-12-23T17:54:16.490Z,101175.23
2018-12-23T17:57:22.148Z,101178.74
2018-12-23T18:00:27.939Z,101181.12
2018-12-23T18:03:33.597Z,101176.23
2018-12-23T18:06:39.740Z,101171.50
2018-12-23T18:09:45.389Z,101173.16
2018-12-23T18:12:51.563Z,101173.02
2018-12-23T18:15:57.179Z,101174.36
2018-12-23T18:19:02.827Z,101171.66
2018-12-23T18:22:08.501Z,101177.48
2018-12-23T18:25:14.211Z,101182.02
2018-12-23T18:28:19.887Z,101193.92
2018-12-23T18:31:25.550Z,101183.86
2018-12-23T18:34:31.190Z,101188.83
2018-12-23T18:37:36.880Z,101199.17
2018-12-23T18:40:42.607Z,101196.84
2018-12-23T18:43:48.265Z,101205.80
2018-12-23T18:46:53.879Z,101203.28
2018-12-23T18:49:59.518Z,101202.86
2018-12-23T18:53:05.214Z,101202.59
2018-12-23T18:56:10.903Z,101207.80
2018-12-23T18:59:20.005Z,101207.35
2018-12-23T19:02:56.257Z,101210.05
2018-12-23T19:06:02.435Z,101212.39
2018-12-23T19:09:38.366Z,101218.00
2018-12-23T19:13:40.338Z,101229.27
2018-12-23T19:17:12.215Z,101233.99
2018-12-23T19:21:16.094Z,101241.09
2018-12-23T19:25:16.426Z,101243.19
2018-12-23T19:29:39.989Z,101247.13
2018-12-23T19:33:22.754Z,101245.46
2018-12-23T19:37:28.428Z,101255.41
2018-12-23T19:41:27.327Z,101266.36
2018-12-23T19:45:52.029Z,101273.62
2018-12-23T19:49:51.555Z,101276.48
2018-12-23T19:53:46.140Z,101285.09
2018-12-23T19:57:22.203Z,101293.70
2018-12-23T20:01:26.302Z,101287.38
2018-12-23T20:05:23.805Z,101296.62
2018-12-23T20:09:17.190Z,101305.20
2018-12-23T20:13:34.573Z,101301.52
2018-12-23T20:17:39.130Z,101305.38
2018-12-23T20:21:23.194Z,101307.59
2018-12-23T20:25:30.491Z,101309.62
2018-12-23T20:29:30.488Z,101326.77
2018-12-23T20:33:02.753Z,101325.57
2018-12-23T20:37:04.837Z,101330.45
2018-12-23T20:41:17.431Z,101335.15
2018-12-23T20:45:20.323Z,101340.52
2018-12-23T20:49:20.279Z,101345.75
2018-12-23T20:53:24.367Z,101344.57
2018-12-23T20:57:25.350Z,101350.61
2018-12-23T21:01:26.021Z,101352.48
2018-12-23T21:05:35.027Z,101356.52
2018-12-23T21:09:36.461Z,101363.73
2018-12-23T21:13:48.613Z,101364.72
2018-12-23T21:17:51.464Z,101369.41
2018-12-23T21:22:02.261Z,101378.64
2018-12-23T21:25:54.823Z,101391.75
2018-12-23T21:29:46.950Z,101386.70
2018-12-23T21:33:46.733Z,101392.75
2018-12-23T21:37:58.041Z,101401.47
2018-12-23T21:42:08.138Z,101403.50
2018-12-23T21:46:33.083Z,101412.22
2018-12-23T21:50:25.950Z,101418.41
2018-12-23T21:54:38.782Z,101429.48
2018-12-23T21:58:42.603Z,101446.95
2018-12-23T22:02:55.990Z,101455.17
2018-12-23T22:06:22.317Z,101460.02
2018-12-23T22:10:18.893Z,101469.22
2018-12-23T22:13:26.072Z,101481.14
2018-12-23T22:16:31.775Z,101481.80
2018-12-23T22:19:37.423Z,101484.31
2018-12-23T22:22:43.089Z,101490.02
2018-12-23T22:25:49.681Z,101496.41
2018-12-23T22:28:55.341Z,101505.80
2018-12-23T22:32:01.016Z,101514.14
2018-12-23T22:35:06.916Z,101515.09
2018-12-23T22:38:12.572Z,101522.23
2018-12-23T22:41:23.958Z,101528.55
2018-12-23T22:44:29.638Z,101530.84
2018-12-23T22:47:35.290Z,101539.20
2018-12-23T22:50:40.957Z,101549.94
2018-12-23T22:53:47.220Z,101551.44
2018-12-23T22:56:52.991Z,101564.49
2018-12-23T22:59:58.700Z,101563.05
2018-12-23T23:03:08.893Z,101573.40
2018-12-23T23:06:11.831Z,101571.47
2018-12-23T23:09:17.477Z,101581.66
2018-12-23T23:12:23.129Z,101580.11
2018-12-23T23:15:28.794Z,101579.20
2018-12-23T23:18:34.480Z,101580.64
2018-12-23T23:21:40.156Z,101582.29
2018-12-23T23:24:45.832Z,101585.98
2018-12-23T23:27:51.474Z,101591.83
2018-12-23T23:30:57.138Z,101592.69
2018-12-23T23:34:02.826Z,101600.73
2018-12-23T23:37:08.533Z,101608.62
2018-12-23T23:40:14.347Z,101603.08
2018-12-23T23:43:20.855Z,101605.70
2018-12-23T23:46:26.629Z,101619.27
2018-12-23T23:49:32.254Z,101621.77
2018-12-23T23:52:37.914Z,101625.41
2018-12-23T23:55:43.571Z,101631.63
2018-12-23T23:58:49.220Z,101637.63
